createdAt,value
2022-12-01T00:00:22.689Z,6.10
2022-12-01T00:04:28.220Z,6.10
2022-12-01T00:08:33.878Z,6.10
2022-12-01T00:12:43.353Z,6.10
2022-12-01T00:16:46.329Z,6.00
2022-12-01T00:20:55.991Z,6.00
2022-12-01T00:25:07.412Z,6.00
2022-12-01T00:29:18.510Z,6.00
2022-12-01T00:33:23.113Z,6.00
2022-12-01T00:37:26.454Z,6.00
2022-12-01T00:41:31.990Z,6.00
2022-12-01T00:45:36.906Z,5.90
2022-12-01T00:49:39.776Z,6.00
2022-12-01T00:53:42.599Z,6.00
2022-12-01T00:57:45.852Z,6.00
2022-12-01T01:01:50.090Z,6.00
2022-12-01T01:05:54.163Z,5.90
2022-12-01T01:09:57.064Z,5.90
2022-12-01T01:14:00.792Z,5.90
2022-12-01T01:18:05.402Z,5.90
2022-12-01T01:22:08.285Z,5.90
2022-12-01T01:26:15.854Z,5.90
2022-12-01T01:30:22.202Z,5.90
2022-12-01T01:34:26.409Z,5.90
2022-12-01T01:38:30.118Z,5.90
2022-12-01T01:42:32.985Z,5.90
2022-12-01T01:46:36.717Z,5.80
2022-12-01T01:50:45.423Z,5.80
2022-12-01T01:54:56.371Z,5.80
2022-12-01T01:59:02.492Z,5.80
2022-12-01T02:03:05.338Z,5.80
2022-12-01T02:07:10.319Z,5.80
2022-12-01T02:11:48.658Z,5.80
2022-12-01T02:16:00.872Z,5.80
2022-12-01T02:20:43.545Z,5.80
2022-12-01T02:25:13.860Z,5.80
2022-12-01T02:29:50.499Z,5.80
2022-12-01T02:34:00.100Z,5.80
2022-12-01T02:38:12.376Z,5.80
2022-12-01T02:42:35.182Z,5.70
2022-12-01T02:46:41.711Z,5.70
2022-12-01T02:50:47.291Z,5.70
2022-12-01T02:54:50.879Z,5.70
2022-12-01T02:58:53.767Z,5.70
2022-12-01T03:03:20.764Z,5.70
2022-12-01T03:07:52.491Z,5.70
2022-12-01T03:12:06.484Z,5.70
2022-12-01T03:16:12.805Z,5.70
2022-12-01T03:20:19.809Z,5.70
2022-12-01T03:24:27.578Z,5.70
2022-12-01T03:28:34.132Z,5.70
2022-12-01T03:32:42.843Z,5.70
2022-12-01T03:36:49.580Z,5.70
2022-12-01T03:40:58.019Z,5.70
2022-12-01T03:45:04.918Z,5.70
2022-12-01T03:49:08.861Z,5.60
2022-12-01T03:53:19.293Z,5.60
2022-12-01T03:57:27.919Z,5.60
2022-12-01T04:01:33.420Z,5.60
2022-12-01T04:05:36.516Z,5.60
2022-12-01T04:09:39.315Z,5.60
2022-12-01T04:13:43.508Z,5.60
2022-12-01T04:17:46.532Z,5.50
2022-12-01T04:21:49.330Z,5.50
2022-12-01T04:25:59.561Z,5.60
2022-12-01T04:30:04.275Z,5.60
2022-12-01T04:34:07.564Z,5.60
2022-12-01T04:38:10.443Z,5.60
2022-12-01T04:42:13.284Z,5.60
2022-12-01T04:46:17.710Z,5.60
2022-12-01T04:50:20.585Z,5.50
2022-12-01T04:54:23.738Z,5.50
2022-12-01T04:58:26.539Z,5.50
2022-12-01T05:02:30.850Z,5.50
2022-12-01T05:06:33.918Z,5.50
2022-12-01T05:10:37.151Z,5.50
2022-12-01T05:14:39.967Z,5.50
2022-12-01T05:18:47.888Z,5.50
2022-12-01T05:23:06.449Z,5.50
2022-12-01T05:27:09.737Z,5.50
2022-12-01T05:31:12.632Z,5.50
2022-12-01T05:35:17.011Z,5.50
2022-12-01T05:39:19.816Z,5.50
2022-12-01T05:43:28.979Z,5.40
2022-12-01T05:47:32.328Z,5.40
2022-12-01T05:51:36.504Z,5.40
2022-12-01T05:55:39.314Z,5.40
2022-12-01T05:59:42.160Z,5.40
2022-12-01T06:03:45.182Z,5.30
2022-12-01T06:07:49.730Z,5.30
2022-12-01T06:11:52.811Z,5.30
2022-12-01T06:15:59.691Z,5.30
2022-12-01T06:20:02.845Z,5.30
2022-12-01T06:24:07.887Z,5.30
2022-12-01T06:28:10.698Z,5.30
2022-12-01T06:32:13.535Z,5.30
2022-12-01T06:36:16.367Z,5.30
2022-12-01T06:40:20.876Z,5.30
2022-12-01T06:44:23.746Z,5.20
2022-12-01T06:48:26.572Z,5.20
2022-12-01T06:52:29.394Z,5.20
2022-12-01T06:56:33.559Z,5.20
2022-12-01T07:00:36.879Z,5.20
2022-12-01T07:04:39.741Z,5.20
2022-12-01T07:08:42.601Z,5.10
2022-12-01T07:12:46.735Z,5.10
2022-12-01T07:16:49.588Z,5.20
2022-12-01T07:20:52.693Z,5.10
2022-12-01T07:24:55.611Z,5.10
2022-12-01T07:28:59.800Z,5.10
2022-12-01T07:33:02.616Z,5.10
2022-12-01T07:37:05.451Z,5.00
2022-12-01T07:41:10.534Z,5.00
2022-12-01T07:45:14.889Z,5.00
2022-12-01T07:49:17.694Z,5.00
2022-12-01T07:53:20.499Z,5.00
2022-12-01T07:57:23.691Z,5.00
2022-12-01T08:01:27.886Z,4.90
2022-12-01T08:05:30.720Z,4.90
2022-12-01T08:09:33.581Z,5.00
2022-12-01T08:13:36.360Z,4.90
2022-12-01T08:17:40.514Z,4.90
2022-12-01T08:21:43.340Z,4.90
2022-12-01T08:25:46.168Z,4.90
2022-12-01T08:29:49.211Z,4.90
2022-12-01T08:34:05.273Z,5.00
2022-12-01T08:38:10.345Z,4.90
2022-12-01T08:42:13.210Z,5.00
2022-12-01T08:46:16.164Z,5.00
2022-12-01T08:50:19.141Z,5.00
2022-12-01T08:54:23.552Z,5.00
2022-12-01T08:58:26.392Z,5.00
2022-12-01T09:02:29.461Z,4.90
2022-12-01T09:06:33.886Z,4.90
2022-12-01T09:10:38.065Z,5.00
2022-12-01T09:14:42.935Z,4.90
2022-12-01T09:18:47.432Z,4.90
2022-12-01T09:22:50.306Z,4.90
2022-12-01T09:26:58.343Z,5.00
2022-12-01T09:31:05.811Z,5.00
2022-12-01T09:35:09.128Z,5.00
2022-12-01T09:39:16.156Z,4.90
2022-12-01T09:43:23.621Z,4.90
2022-12-01T09:47:31.057Z,4.90
2022-12-01T09:51:36.077Z,4.90
2022-12-01T09:55:40.637Z,5.00
2022-12-01T09:59:46.144Z,5.00
2022-12-01T10:03:55.415Z,5.10
2022-12-01T10:08:03.437Z,5.10
2022-12-01T10:12:14.719Z,5.20
2022-12-01T10:16:26.372Z,5.10
2022-12-01T10:20:36.380Z,5.20
2022-12-01T10:24:52.346Z,5.30
2022-12-01T10:29:12.476Z,5.30
2022-12-01T10:33:24.091Z,5.30
2022-12-01T10:37:29.144Z,5.20
2022-12-01T10:41:36.327Z,5.20
2022-12-01T10:45:45.228Z,5.10
2022-12-01T10:49:50.149Z,5.20
2022-12-01T10:54:00.031Z,5.20
2022-12-01T10:58:13.568Z,5.20
2022-12-01T11:02:20.563Z,5.20
2022-12-01T11:06:27.641Z,5.20
2022-12-01T11:10:32.611Z,5.10
2022-12-01T11:14:44.460Z,5.00
2022-12-01T11:18:47.624Z,5.00
2022-12-01T11:22:51.833Z,4.90
2022-12-01T11:26:55.011Z,4.90
2022-12-01T11:30:59.791Z,4.80
2022-12-01T11:35:05.620Z,4.80
2022-12-01T11:39:23.631Z,4.80
2022-12-01T11:43:31.255Z,4.80
2022-12-01T11:47:34.091Z,4.70
2022-12-01T11:51:38.030Z,4.70
2022-12-01T11:55:42.232Z,4.80
2022-12-01T11:59:45.110Z,4.70
2022-12-01T12:03:58.429Z,4.70
2022-12-01T12:08:09.176Z,4.70
2022-12-01T12:12:30.980Z,4.70
2022-12-01T12:16:47.818Z,4.60
2022-12-01T12:21:03.315Z,4.60
2022-12-01T12:25:21.041Z,4.60
2022-12-01T12:29:44.358Z,4.60
2022-12-01T12:34:13.911Z,4.60
2022-12-01T12:38:35.045Z,4.60
2022-12-01T12:42:48.213Z,4.60
2022-12-01T12:47:01.219Z,4.50
2022-12-01T12:51:10.893Z,4.60
2022-12-01T12:55:19.767Z,4.50
2022-12-01T12:59:26.480Z,4.50
2022-12-01T13:03:43.281Z,4.40
2022-12-01T13:07:54.020Z,4.40
2022-12-01T13:12:02.091Z,4.40
2022-12-01T13:16:11.362Z,4.30
2022-12-01T13:20:18.423Z,4.20
2022-12-01T13:24:23.963Z,4.20
2022-12-01T13:28:28.877Z,4.30
2022-12-01T13:32:35.202Z,4.30
2022-12-01T13:36:49.959Z,4.30
2022-12-01T13:41:11.614Z,4.30
2022-12-01T13:45:19.659Z,4.30
2022-12-01T13:49:39.789Z,4.30
2022-12-01T13:53:58.592Z,4.40
2022-12-01T13:58:25.746Z,4.30
2022-12-01T14:02:32.235Z,4.30
2022-12-01T14:06:39.509Z,4.30
2022-12-01T14:10:54.476Z,4.30
2022-12-01T14:15:00.379Z,4.40
2022-12-01T14:19:03.488Z,4.40
2022-12-01T14:23:20.837Z,4.30
2022-12-01T14:27:36.646Z,4.30
2022-12-01T14:32:06.396Z,4.20
2022-12-01T14:36:17.930Z,4.20
2022-12-01T14:40:30.069Z,4.20
2022-12-01T14:44:38.897Z,4.20
2022-12-01T14:48:44.081Z,4.20
2022-12-01T14:52:51.931Z,4.20
2022-12-01T14:57:04.357Z,4.20
2022-12-01T15:01:13.097Z,4.20
2022-12-01T15:05:18.720Z,4.20
2022-12-01T15:09:33.611Z,4.20
2022-12-01T15:13:48.783Z,4.20
2022-12-01T15:17:55.545Z,4.20
2022-12-01T15:21:58.631Z,4.20
2022-12-01T15:26:01.556Z,4.30
2022-12-01T15:30:05.995Z,4.30
2022-12-01T15:34:16.239Z,4.30
2022-12-01T15:38:23.519Z,4.20
2022-12-01T15:42:29.938Z,4.10
2022-12-01T15:46:35.140Z,4.10
2022-12-01T15:50:46.200Z,4.10
2022-12-01T15:54:50.820Z,4.10
2022-12-01T15:58:59.579Z,4.00
2022-12-01T16:03:03.436Z,4.00
2022-12-01T16:07:10.214Z,4.00
2022-12-01T16:11:16.330Z,4.00
2022-12-01T16:15:22.680Z,4.00
2022-12-01T16:19:30.803Z,4.00
2022-12-01T16:23:35.142Z,4.00
2022-12-01T16:27:38.040Z,4.00
2022-12-01T16:31:58.587Z,4.00
2022-12-01T16:36:04.939Z,4.00
2022-12-01T16:40:11.744Z,4.00
2022-12-01T16:44:30.625Z,3.90
2022-12-01T16:48:34.880Z,3.90
2022-12-01T16:52:45.791Z,3.90
2022-12-01T16:56:50.911Z,3.90
2022-12-01T17:00:53.834Z,3.90
2022-12-01T17:04:56.802Z,3.80
2022-12-01T17:08:59.633Z,3.80
2022-12-01T17:13:03.883Z,3.80
2022-12-01T17:17:06.729Z,3.80
2022-12-01T17:21:11.546Z,3.70
2022-12-01T17:25:14.415Z,3.70
2022-12-01T17:29:18.559Z,3.70
2022-12-01T17:33:22.451Z,3.70
2022-12-01T17:37:27.712Z,3.70
2022-12-01T17:41:35.551Z,3.70
2022-12-01T17:45:41.860Z,3.70
2022-12-01T17:49:44.747Z,3.70
2022-12-01T17:53:47.719Z,3.60
2022-12-01T17:57:50.590Z,3.70
2022-12-01T18:01:54.866Z,3.70
2022-12-01T18:05:58.606Z,3.70
2022-12-01T18:10:01.898Z,3.70
2022-12-01T18:14:04.774Z,3.70
2022-12-01T18:18:08.967Z,3.70
2022-12-01T18:22:11.798Z,3.60
2022-12-01T18:26:16.288Z,3.70
2022-12-01T18:30:19.430Z,3.60
2022-12-01T18:34:24.034Z,3.70
2022-12-01T18:38:28.090Z,3.70
2022-12-01T18:42:33.261Z,3.70
2022-12-01T18:46:36.686Z,3.70
2022-12-01T18:50:41.065Z,3.60
2022-12-01T18:54:43.875Z,3.60
2022-12-01T18:58:46.691Z,3.70
2022-12-01T19:02:49.585Z,3.60
2022-12-01T19:06:54.927Z,3.60
2022-12-01T19:11:01.279Z,3.70
2022-12-01T19:15:04.410Z,3.70
2022-12-01T19:19:07.628Z,3.70
2022-12-01T19:23:11.879Z,3.70
2022-12-01T19:27:14.724Z,3.70
2022-12-01T19:31:20.070Z,3.70
2022-12-01T19:35:23.023Z,3.70
2022-12-01T19:39:27.341Z,3.70
2022-12-01T19:43:30.250Z,3.70
2022-12-01T19:47:33.494Z,3.70
2022-12-01T19:51:38.841Z,3.70
2022-12-01T19:55:43.039Z,3.70
2022-12-01T19:59:45.917Z,3.70
2022-12-01T20:03:50.356Z,3.60
2022-12-01T20:07:53.412Z,3.70
2022-12-01T20:11:57.670Z,3.70
2022-12-01T20:16:04.330Z,3.70
2022-12-01T20:20:08.627Z,3.70
2022-12-01T20:24:13.708Z,3.60
2022-12-01T20:28:18.002Z,3.60
2022-12-01T20:32:23.723Z,3.60
2022-12-01T20:36:27.852Z,3.60
2022-12-01T20:40:30.692Z,3.60
2022-12-01T20:44:35.148Z,3.60
2022-12-01T20:48:37.952Z,3.60
2022-12-01T20:52:41.989Z,3.60
2022-12-01T20:56:45.051Z,3.50
2022-12-01T21:00:49.434Z,3.50
2022-12-01T21:04:56.356Z,3.50
2022-12-01T21:09:03.430Z,3.50
2022-12-01T21:13:43.845Z,3.50
2022-12-01T21:17:53.835Z,3.60
2022-12-01T21:21:57.060Z,3.60
2022-12-01T21:25:59.930Z,3.60
2022-12-01T21:30:07.937Z,3.60
2022-12-01T21:34:17.570Z,3.60
2022-12-01T21:38:22.137Z,3.50
2022-12-01T21:42:27.809Z,3.60
2022-12-01T21:46:31.090Z,3.60
2022-12-01T21:50:35.419Z,3.60
2022-12-01T21:54:38.223Z,3.60
2022-12-01T21:58:41.108Z,3.60
2022-12-01T22:02:49.219Z,3.60
2022-12-01T22:06:55.580Z,3.60
2022-12-01T22:11:01.729Z,3.60
2022-12-01T22:15:28.862Z,3.60
2022-12-01T22:19:33.800Z,3.60
2022-12-01T22:23:37.991Z,3.50
2022-12-01T22:27:41.154Z,3.60
2022-12-01T22:31:44.018Z,3.60
2022-12-01T22:35:49.300Z,3.60
2022-12-01T22:39:56.461Z,3.60
2022-12-01T22:44:01.379Z,3.60
2022-12-01T22:48:14.311Z,3.50
2022-12-01T22:52:22.702Z,3.50
2022-12-01T22:56:32.716Z,3.50
2022-12-01T23:00:35.587Z,3.50
2022-12-01T23:04:41.155Z,3.50
2022-12-01T23:08:44.731Z,3.50
2022-12-01T23:12:50.543Z,3.60
2022-12-01T23:16:57.465Z,3.50
2022-12-01T23:21:04.128Z,3.50
2022-12-01T23:25:14.291Z,3.50
2022-12-01T23:29:18.573Z,3.50
2022-12-01T23:33:23.229Z,3.50
2022-12-01T23:37:34.124Z,3.50
2022-12-01T23:41:39.725Z,3.50
2022-12-01T23:45:44.623Z,3.50
2022-12-01T23:49:53.354Z,3.50
2022-12-01T23:53:57.797Z,3.50
2022-12-01T23:58:01.767Z,3.50
